Time;durP1;ratioP1;P1;durP2;ratioP2;P2;SDS_P1;SDS_P2;PMS_P1;PMS_P2;Temp;Humidity;BMP_temperature;BMP_pressure;BME280_temperature;BME280_humidity;BME280_pressure;Samples;Min_cycle;Max_cycle;Signal;HPM_P1;HPM_P2
2021/04/09 00:02:04;;;;;;;12.70;8.43;;;5.40;99.90;;;;;;5062438;28;20233;-81
2021/04/09 00:04:31;;;;;;;13.00;8.10;;;5.50;99.90;;;;;;5081231;28;20218;-82
2021/04/09 00:06:57;;;;;;;12.23;7.43;;;5.30;99.90;;;;;;5079379;28;20778;-82
2021/04/09 00:09:24;;;;;;;12.63;8.00;;;5.30;99.90;;;;;;5080595;28;20214;-81
2021/04/09 00:11:50;;;;;;;11.27;7.83;;;5.40;99.90;;;;;;5081873;28;20256;-81
2021/04/09 00:14:18;;;;;;;13.97;8.37;;;5.40;99.90;;;;;;5084742;28;20207;-81
2021/04/09 00:16:44;;;;;;;12.33;8.20;;;5.40;99.90;;;;;;5081656;28;20233;-81
2021/04/09 00:19:17;;;;;;;12.27;8.70;;;5.40;99.90;;;;;;5077933;28;20245;-81
2021/04/09 00:21:44;;;;;;;13.47;8.17;;;5.40;99.90;;;;;;5085076;28;20226;-82
2021/04/09 00:24:11;;;;;;;9.97;7.87;;;5.40;99.90;;;;;;5069867;28;20275;-81
2021/04/09 00:26:38;;;;;;;14.57;8.00;;;5.40;99.90;;;;;;5071399;28;20206;-81
2021/04/09 00:29:05;;;;;;;11.10;8.43;;;5.40;99.90;;;;;;5084218;28;20250;-81
2021/04/09 00:31:32;;;;;;;10.87;7.70;;;5.50;99.90;;;;;;5086332;28;20781;-81
2021/04/09 00:33:59;;;;;;;13.43;7.80;;;5.50;99.90;;;;;;5084164;28;20213;-81
2021/04/09 00:36:26;;;;;;;12.10;7.17;;;5.50;99.90;;;;;;5083827;28;20597;-83
2021/04/09 00:38:53;;;;;;;10.93;7.70;;;5.40;99.90;;;;;;5088597;28;20235;-81
2021/04/09 00:41:26;;;;;;;10.80;8.40;;;5.40;99.90;;;;;;5085492;28;20267;-82
2021/04/09 00:43:53;;;;;;;16.77;7.93;;;5.40;99.90;;;;;;5070595;28;20199;-81
2021/04/09 00:46:19;;;;;;;16.40;8.83;;;5.40;99.90;;;;;;5085951;28;20191;-84
2021/04/09 00:48:46;;;;;;;11.70;8.33;;;5.40;99.90;;;;;;5055463;28;20195;-81
2021/04/09 00:51:14;;;;;;;13.37;7.87;;;5.40;99.90;;;;;;5051066;28;20704;-81
2021/04/09 00:53:43;;;;;;;13.20;8.80;;;5.30;99.90;;;;;;5098794;28;20198;-81
2021/04/09 00:56:14;;;;;;;13.13;8.20;;;5.30;99.90;;;;;;5089385;28;20192;-80
2021/04/09 00:58:41;;;;;;;13.40;8.23;;;5.30;1.00;;;;;;5086657;28;20204;-82
2021/04/09 01:01:07;;;;;;;13.17;8.37;;;5.30;99.90;;;;;;5083134;28;20203;-81
2021/04/09 01:03:35;;;;;;;12.23;8.13;;;5.30;99.90;;;;;;5080878;28;20201;-80
2021/04/09 01:06:02;;;;;;;15.87;9.50;;;5.20;1.00;;;;;;5083532;28;20313;-81
2021/04/09 01:08:29;;;;;;;13.67;8.57;;;5.40;99.90;;;;;;5072704;28;20232;-81
2021/04/09 01:10:57;;;;;;;14.03;9.20;;;5.30;99.90;;;;;;5067794;28;20202;-80
2021/04/09 01:13:24;;;;;;;12.30;8.20;;;5.30;99.90;;;;;;5083242;28;20627;-80
2021/04/09 01:15:51;;;;;;;11.33;8.60;;;5.30;99.90;;;;;;5088647;28;20236;-80
2021/04/09 01:18:46;;;;;;;16.00;9.23;;;5.30;99.90;;;;;;5087789;28;20217;-82
2021/04/09 01:21:24;;;;;;;14.67;9.10;;;5.20;99.90;;;;;;5085159;28;20271;-81
2021/04/09 01:24:03;;;;;;;14.27;9.67;;;5.30;1.00;;;;;;5088069;28;20237;-81
2021/04/09 01:27:05;;;;;;;14.40;8.60;;;5.30;99.90;;;;;;5085182;28;20225;-81
2021/04/09 01:30:02;;;;;;;18.17;8.93;;;5.20;99.90;;;;;;5083071;28;21142;-80
2021/04/09 01:32:30;;;;;;;12.43;8.33;;;5.20;99.90;;;;;;5083091;28;20788;-79
2021/04/09 01:35:04;;;;;;;11.23;8.27;;;5.20;99.90;;;;;;5084910;28;20209;-82
2021/04/09 01:37:41;;;;;;;18.17;9.60;;;5.30;99.90;;;;;;5080836;28;20206;-80
2021/04/09 01:40:17;;;;;;;12.43;8.73;;;5.20;99.90;;;;;;5084341;28;20270;-81
2021/04/09 01:42:48;;;;;;;15.20;9.17;;;5.20;99.90;;;;;;5082153;28;20235;-81
2021/04/09 01:45:16;;;;;;;13.37;8.87;;;5.20;99.90;;;;;;5083674;28;20204;-81
2021/04/09 01:47:43;;;;;;;13.57;7.80;;;5.20;99.90;;;;;;5085859;28;20237;-81
2021/04/09 01:50:13;;;;;;;18.03;9.47;;;5.10;99.90;;;;;;5085913;28;20218;-81
2021/04/09 01:52:43;;;;;;;14.30;9.17;;;5.10;99.90;;;;;;5083622;28;20212;-80
2021/04/09 01:55:11;;;;;;;15.77;9.00;;;5.00;99.90;;;;;;5082644;28;20251;-81
2021/04/09 01:57:40;;;;;;;15.07;9.57;;;5.10;99.90;;;;;;5082064;28;20648;-82
2021/04/09 02:00:12;;;;;;;16.17;9.60;;;5.10;99.90;;;;;;5086775;28;20662;-81
2021/04/09 02:02:41;;;;;;;11.47;8.13;;;5.20;99.90;;;;;;5085071;28;20221;-81
2021/04/09 02:05:08;;;;;;;13.50;9.00;;;5.10;99.90;;;;;;5082609;28;20252;-80
2021/04/09 02:07:37;;;;;;;13.73;9.47;;;5.10;99.90;;;;;;5083904;28;20199;-80
2021/04/09 02:10:05;;;;;;;10.93;8.03;;;5.10;99.90;;;;;;5067655;28;20331;-83
2021/04/09 02:12:32;;;;;;;15.17;9.60;;;5.20;99.90;;;;;;5088343;28;20628;-82
2021/04/09 02:14:58;;;;;;;14.07;8.60;;;5.20;99.90;;;;;;5054766;28;20223;-81
2021/04/09 02:17:25;;;;;;;14.03;8.53;;;5.10;99.90;;;;;;5055050;28;20207;-80
2021/04/09 02:19:51;;;;;;;18.47;9.93;;;5.10;99.90;;;;;;5068521;28;20213;-82
2021/04/09 02:22:19;;;;;;;13.47;8.63;;;5.10;99.90;;;;;;5070780;28;20213;-82
2021/04/09 02:24:48;;;;;;;11.67;8.13;;;5.00;99.90;;;;;;5063847;28;20189;-80
2021/04/09 02:27:15;;;;;;;15.17;8.33;;;5.20;99.90;;;;;;5069367;28;20272;-80
2021/04/09 02:29:43;;;;;;;13.53;7.77;;;5.10;99.90;;;;;;5065758;28;20209;-80
2021/04/09 02:32:11;;;;;;;14.10;8.70;;;5.10;99.90;;;;;;5085377;28;20204;-80
2021/04/09 02:34:38;;;;;;;12.57;8.80;;;5.10;99.90;;;;;;5072338;28;20204;-80
2021/04/09 02:37:06;;;;;;;12.83;8.17;;;5.00;99.90;;;;;;5068027;28;20201;-82
2021/04/09 02:39:38;;;;;;;14.57;9.63;;;5.10;99.90;;;;;;5064816;28;20245;-82
2021/04/09 02:42:07;;;;;;;12.23;8.37;;;5.10;99.90;;;;;;5078532;28;20624;-81
2021/04/09 02:44:35;;;;;;;10.53;7.90;;;5.00;99.90;;;;;;5084595;28;20282;-80
2021/04/09 02:47:23;;;;;;;13.23;8.17;;;5.10;99.90;;;;;;5086218;28;21873;-83
2021/04/09 02:50:27;;;;;;;14.97;8.80;;;5.10;99.90;;;;;;5086598;28;20209;-81
2021/04/09 02:52:58;;;;;;;11.70;8.47;;;5.10;99.90;;;;;;5089270;28;20221;-81
2021/04/09 02:55:29;;;;;;;13.80;8.40;;;5.00;99.90;;;;;;5087492;28;20202;-82
2021/04/09 02:57:59;;;;;;;20.37;8.27;;;5.10;99.90;;;;;;5100666;28;20541;-82
2021/04/09 03:00:26;;;;;;;12.00;7.50;;;5.20;99.90;;;;;;5083522;28;20218;-81
2021/04/09 03:02:54;;;;;;;12.47;8.20;;;5.20;99.90;;;;;;5085126;28;20662;-81
2021/04/09 03:05:23;;;;;;;12.83;8.20;;;5.10;99.90;;;;;;5082690;28;20222;-81
2021/04/09 03:07:50;;;;;;;17.13;7.13;;;5.00;99.90;;;;;;5086923;28;20592;-82
2021/04/09 03:10:18;;;;;;;13.10;8.17;;;5.10;99.90;;;;;;5083148;28;20194;-81
2021/04/09 03:12:45;;;;;;;13.63;8.20;;;5.10;99.90;;;;;;5085079;28;20438;-81
2021/04/09 03:15:23;;;;;;;16.40;7.87;;;4.90;99.90;;;;;;5081202;28;20205;-82
2021/04/09 03:18:02;;;;;;;13.50;8.40;;;4.90;99.90;;;;;;5094486;28;20651;-80
2021/04/09 03:20:29;;;;;;;19.17;7.43;;;4.90;99.90;;;;;;5082836;28;20209;-82
2021/04/09 03:22:56;;;;;;;12.20;7.70;;;4.90;99.90;;;;;;5051046;28;20222;-81
2021/04/09 03:25:22;;;;;;;11.47;8.30;;;4.90;99.90;;;;;;5066157;28;20241;-82
2021/04/09 03:27:52;;;;;;;15.47;7.80;;;5.00;99.90;;;;;;5079051;28;20207;-82
2021/04/09 03:30:21;;;;;;;11.83;8.17;;;4.90;99.90;;;;;;5086466;28;20557;-82
2021/04/09 03:32:48;;;;;;;12.07;8.40;;;5.00;99.90;;;;;;5081357;28;20198;-81
2021/04/09 03:35:19;;;;;;;17.23;8.30;;;4.90;99.90;;;;;;5086769;28;20927;-80
2021/04/09 03:37:46;;;;;;;12.70;8.13;;;4.90;99.90;;;;;;5081305;28;20233;-81
2021/04/09 03:40:14;;;;;;;11.50;8.03;;;4.90;99.90;;;;;;5080754;28;20218;-81
2021/04/09 03:42:42;;;;;;;12.70;7.87;;;5.10;99.90;;;;;;5080439;28;20591;-80
2021/04/09 03:45:09;;;;;;;13.33;8.23;;;5.20;99.90;;;;;;5081694;28;20206;-82
2021/04/09 03:47:37;;;;;;;11.40;7.53;;;5.20;99.90;;;;;;5085970;28;20252;-81
2021/04/09 03:50:06;;;;;;;15.37;8.00;;;5.10;99.90;;;;;;5079807;28;20194;-82
2021/04/09 03:52:33;;;;;;;13.63;8.20;;;5.00;99.90;;;;;;5065934;28;20655;-81
2021/04/09 03:54:59;;;;;;;18.07;8.23;;;5.00;99.90;;;;;;5069433;28;20203;-82
2021/04/09 03:57:26;;;;;;;17.80;7.37;;;4.90;99.90;;;;;;5068206;28;20646;-81
2021/04/09 03:59:52;;;;;;;13.50;7.60;;;4.90;99.90;;;;;;5067806;28;20202;-81
2021/04/09 04:02:19;;;;;;;13.10;7.20;;;5.00;99.90;;;;;;5082600;28;20935;-81
2021/04/09 04:04:45;;;;;;;13.60;8.27;;;4.90;99.90;;;;;;5064741;28;20218;-81
2021/04/09 04:07:11;;;;;;;15.13;7.27;;;5.00;99.90;;;;;;5079285;28;20206;-81
2021/04/09 04:09:38;;;;;;;12.57;6.97;;;5.00;99.90;;;;;;5079760;28;20206;-82
2021/04/09 04:12:05;;;;;;;14.50;8.13;;;5.00;99.90;;;;;;5064980;28;20251;-81
2021/04/09 04:14:32;;;;;;;11.80;7.57;;;5.00;99.90;;;;;;5065921;28;20198;-80
2021/04/09 04:16:59;;;;;;;14.07;8.33;;;4.90;99.90;;;;;;5082090;28;20480;-80
2021/04/09 04:19:25;;;;;;;15.83;8.53;;;4.90;99.90;;;;;;5065517;28;20313;-82
2021/04/09 04:21:52;;;;;;;10.43;7.83;;;5.00;99.90;;;;;;5067751;28;20261;-81
2021/04/09 04:24:19;;;;;;;10.13;7.50;;;4.80;99.90;;;;;;5082308;28;20199;-81
2021/04/09 04:26:45;;;;;;;12.17;7.60;;;4.90;99.90;;;;;;5080519;28;20217;-81
2021/04/09 04:29:12;;;;;;;12.90;7.90;;;4.90;99.90;;;;;;5084253;28;20248;-82
2021/04/09 04:31:38;;;;;;;14.63;8.50;;;4.90;99.90;;;;;;5087166;28;20194;-80
2021/04/09 04:34:08;;;;;;;15.10;7.50;;;4.90;99.90;;;;;;5064648;28;20542;-83
2021/04/09 04:36:34;;;;;;;15.30;8.17;;;4.90;99.90;;;;;;5068860;28;20211;-83
2021/04/09 04:39:01;;;;;;;15.43;7.47;;;4.90;99.90;;;;;;5083009;28;20249;-81
2021/04/09 04:41:27;;;;;;;13.40;7.60;;;4.90;99.90;;;;;;5070511;28;20253;-82
2021/04/09 04:43:55;;;;;;;11.37;7.67;;;4.90;99.90;;;;;;5066680;28;20279;-81
2021/04/09 04:46:21;;;;;;;11.37;7.30;;;4.90;99.90;;;;;;5074192;28;20621;-81
2021/04/09 04:48:47;;;;;;;15.00;8.27;;;4.80;99.90;;;;;;5082585;28;20210;-81
2021/04/09 04:51:15;;;;;;;15.07;7.00;;;4.90;99.90;;;;;;5079029;28;20202;-81
2021/04/09 04:53:41;;;;;;;12.83;7.63;;;4.80;99.90;;;;;;5080605;28;20199;-81
2021/04/09 04:56:08;;;;;;;10.43;7.23;;;4.80;99.90;;;;;;5083044;28;20203;-82
2021/04/09 04:58:34;;;;;;;11.57;7.20;;;4.70;99.90;;;;;;5065537;28;20223;-82
2021/04/09 05:01:00;;;;;;;13.30;7.60;;;4.70;99.90;;;;;;5070626;28;20210;-81
2021/04/09 05:03:27;;;;;;;14.80;7.53;;;4.70;99.90;;;;;;5053058;28;20267;-81
2021/04/09 05:05:53;;;;;;;11.10;7.37;;;4.70;99.90;;;;;;5080680;28;20229;-81
2021/04/09 05:08:19;;;;;;;14.73;8.27;;;4.70;99.90;;;;;;5074057;28;20207;-82
2021/04/09 05:10:46;;;;;;;12.17;7.47;;;4.80;99.90;;;;;;5088051;28;20255;-82
2021/04/09 05:13:12;;;;;;;11.80;7.30;;;4.80;99.90;;;;;;5066859;28;20267;-81
2021/04/09 05:15:38;;;;;;;12.63;7.83;;;5.00;99.90;;;;;;5088312;28;20206;-81
2021/04/09 05:18:05;;;;;;;12.60;7.13;;;4.90;99.90;;;;;;5072106;28;20218;-82
2021/04/09 05:20:32;;;;;;;13.70;7.93;;;4.90;99.90;;;;;;5056387;28;20214;-81
2021/04/09 05:22:58;;;;;;;13.10;8.00;;;4.90;99.90;;;;;;5071424;28;20276;-82
2021/04/09 05:25:25;;;;;;;10.73;7.07;;;4.90;99.90;;;;;;5066970;28;20202;-81
2021/04/09 05:27:51;;;;;;;14.27;8.47;;;4.80;99.90;;;;;;5086363;28;20302;-81
2021/04/09 05:30:18;;;;;;;13.53;7.97;;;5.00;99.90;;;;;;5070672;28;20213;-82
2021/04/09 05:32:44;;;;;;;11.07;8.07;;;4.90;99.90;;;;;;5086165;28;20658;-81
2021/04/09 05:35:12;;;;;;;11.30;7.30;;;5.00;99.90;;;;;;5067959;28;21870;-80
2021/04/09 05:37:38;;;;;;;10.83;7.83;;;5.10;99.90;;;;;;5071801;28;20276;-82
2021/04/09 05:40:06;;;;;;;12.87;7.90;;;5.10;99.90;;;;;;5069085;28;20716;-82
2021/04/09 05:42:32;;;;;;;11.87;7.33;;;5.20;99.90;;;;;;5070935;28;20229;-80
2021/04/09 05:44:59;;;;;;;15.73;7.97;;;5.30;99.90;;;;;;5084875;28;20195;-82
2021/04/09 05:47:26;;;;;;;11.43;8.33;;;5.50;99.90;;;;;;5069633;28;20241;-81
2021/04/09 05:49:53;;;;;;;13.63;7.57;;;5.40;99.90;;;;;;5071481;28;20202;-83
2021/04/09 05:52:21;;;;;;;10.90;7.50;;;5.30;99.90;;;;;;5090006;28;20209;-80
2021/04/09 05:54:47;;;;;;;12.03;8.10;;;5.20;99.90;;;;;;5088278;28;20279;-82
2021/04/09 05:57:14;;;;;;;12.93;7.33;;;5.10;99.90;;;;;;5071596;28;20199;-82
2021/04/09 05:59:40;;;;;;;13.73;7.87;;;5.30;99.90;;;;;;5086579;28;20567;-82
2021/04/09 06:02:08;;;;;;;18.83;7.37;;;5.20;99.90;;;;;;5063140;28;20255;-81
2021/04/09 06:04:35;;;;;;;9.67;6.93;;;5.20;99.90;;;;;;5067054;28;20206;-81
2021/04/09 06:07:01;;;;;;;12.37;7.37;;;5.10;99.90;;;;;;5087484;28;20689;-81
2021/04/09 06:09:28;;;;;;;13.93;7.97;;;5.20;99.90;;;;;;5061617;28;20630;-82
2021/04/09 06:11:55;;;;;;;11.13;7.40;;;5.20;99.90;;;;;;5087845;28;20259;-81
2021/04/09 06:14:22;;;;;;;18.00;8.43;;;5.30;99.90;;;;;;5085377;28;20761;-82
2021/04/09 06:16:48;;;;;;;11.33;7.43;;;5.30;99.90;;;;;;5071577;28;20226;-82
2021/04/09 06:19:16;;;;;;;11.47;7.17;;;5.50;99.90;;;;;;5084760;28;20643;-83
2021/04/09 06:21:42;;;;;;;13.43;7.30;;;5.70;99.90;;;;;;5084501;28;20711;-82
2021/04/09 06:24:09;;;;;;;12.17;7.47;;;5.60;99.90;;;;;;5067705;28;20203;-84
2021/04/09 06:26:36;;;;;;;13.97;8.23;;;5.60;99.90;;;;;;5085858;28;20199;-81
2021/04/09 06:29:03;;;;;;;10.63;7.57;;;5.70;99.90;;;;;;5073480;28;20298;-84
2021/04/09 06:31:30;;;;;;;13.60;8.20;;;5.60;99.90;;;;;;5054868;28;20209;-82
2021/04/09 06:33:56;;;;;;;12.37;7.10;;;5.60;99.90;;;;;;5084675;28;20207;-81
2021/04/09 06:36:23;;;;;;;9.67;6.97;;;5.60;99.90;;;;;;5083048;28;20213;-82
2021/04/09 06:38:50;;;;;;;13.20;7.93;;;5.70;99.90;;;;;;5083348;28;20210;-81
2021/04/09 06:41:18;;;;;;;13.20;8.17;;;5.80;99.90;;;;;;5069951;28;20268;-82
2021/04/09 06:43:46;;;;;;;13.00;7.87;;;6.10;99.90;;;;;;5071650;28;20225;-83
2021/04/09 06:46:14;;;;;;;13.17;7.20;;;6.00;99.90;;;;;;5102682;28;20199;-84
2021/04/09 06:48:42;;;;;;;16.97;7.77;;;6.10;99.90;;;;;;5071527;28;20195;-83
2021/04/09 06:51:12;;;;;;;10.83;6.90;;;6.20;99.90;;;;;;5082163;28;20258;-82
2021/04/09 06:53:46;;;;;;;11.13;7.87;;;6.20;99.90;;;;;;5080389;28;20213;-81
2021/04/09 06:56:13;;;;;;;11.63;7.37;;;6.10;99.90;;;;;;5083244;28;20206;-83
2021/04/09 06:58:41;;;;;;;11.27;7.77;;;6.10;99.90;;;;;;5064626;28;20218;-81
2021/04/09 07:01:10;;;;;;;10.37;7.07;;;6.20;99.90;;;;;;5087043;28;20280;-81
2021/04/09 07:03:37;;;;;;;11.67;7.13;;;6.30;99.90;;;;;;5080299;28;21042;-81
2021/04/09 07:06:04;;;;;;;14.20;7.40;;;6.30;99.90;;;;;;5069477;28;20244;-81
2021/04/09 07:08:36;;;;;;;13.43;7.03;;;6.40;99.90;;;;;;5069520;28;20565;-81
2021/04/09 07:11:05;;;;;;;8.97;7.47;;;6.50;99.90;;;;;;5091012;28;20195;-82
2021/04/09 07:13:32;;;;;;;10.93;6.87;;;6.50;99.90;;;;;;5068305;28;20191;-81
2021/04/09 07:16:08;;;;;;;14.13;7.00;;;6.70;99.90;;;;;;5068906;28;20211;-82
2021/04/09 07:18:58;;;;;;;10.83;6.50;;;6.80;99.90;;;;;;5084737;28;20304;-81
2021/04/09 07:21:31;;;;;;;9.77;6.70;;;6.90;99.90;;;;;;5082980;28;20255;-82
2021/04/09 07:24:12;;;;;;;12.47;7.50;;;7.20;99.90;;;;;;5086058;28;20215;-79
2021/04/09 07:26:47;;;;;;;9.93;7.37;;;7.40;99.90;;;;;;5087368;28;20221;-81
2021/04/09 07:29:32;;;;;;;11.40;6.77;;;7.40;99.90;;;;;;5084294;28;22864;-81
2021/04/09 07:32:19;;;;;;;10.73;7.63;;;7.20;99.90;;;;;;5083723;28;20646;-80
2021/04/09 07:35:00;;;;;;;11.63;7.10;;;7.20;99.90;;;;;;5086908;28;20217;-79
2021/04/09 07:37:28;;;;;;;12.97;6.40;;;7.20;99.90;;;;;;5083951;28;20258;-79
2021/04/09 07:39:59;;;;;;;9.10;6.07;;;7.30;99.90;;;;;;5067391;28;20223;-82
2021/04/09 07:42:37;;;;;;;9.90;5.27;;;7.50;99.90;;;;;;5086308;28;20244;-80
2021/04/09 07:45:12;;;;;;;9.97;6.40;;;7.50;99.90;;;;;;5081524;28;20195;-82
2021/04/09 07:47:40;;;;;;;10.00;6.80;;;7.60;99.90;;;;;;5082313;28;20257;-81
2021/04/09 07:50:07;;;;;;;10.27;6.93;;;7.60;99.90;;;;;;5079409;28;20258;-81
2021/04/09 07:52:51;;;;;;;11.40;5.90;;;7.70;99.90;;;;;;5085423;28;20202;-80
2021/04/09 07:55:23;;;;;;;10.13;6.67;;;7.80;99.90;;;;;;5088878;28;20226;-78
2021/04/09 07:57:50;;;;;;;9.23;6.20;;;8.10;99.90;;;;;;5085602;28;20200;-82
2021/04/09 08:00:22;;;;;;;10.03;5.90;;;8.30;99.90;;;;;;5081976;28;20249;-82
2021/04/09 08:02:51;;;;;;;11.57;7.07;;;8.30;99.90;;;;;;5088889;28;20281;-82
2021/04/09 08:05:22;;;;;;;9.97;6.10;;;8.50;99.90;;;;;;5078907;28;20214;-77
2021/04/09 08:07:48;;;;;;;6.37;5.30;;;8.50;99.90;;;;;;5078419;28;20208;-76
2021/04/09 08:10:18;;;;;;;11.03;5.97;;;8.50;99.90;;;;;;5075158;28;20722;-76
2021/04/09 08:12:51;;;;;;;7.73;5.47;;;8.60;99.90;;;;;;5074390;28;20678;-75
2021/04/09 08:15:24;;;;;;;8.17;6.27;;;8.40;99.90;;;;;;5075679;28;20313;-75
2021/04/09 08:18:07;;;;;;;7.93;5.23;;;8.60;99.90;;;;;;5069254;28;20306;-76
2021/04/09 08:20:42;;;;;;;9.73;5.60;;;8.70;99.90;;;;;;5074598;28;20207;-76
2021/04/09 08:23:14;;;;;;;8.03;4.87;;;8.70;99.90;;;;;;5077231;28;20690;-76
2021/04/09 08:25:42;;;;;;;10.33;5.67;;;8.60;99.90;;;;;;5074023;28;20302;-77
2021/04/09 08:28:11;;;;;;;7.93;5.10;;;8.70;99.90;;;;;;5078632;28;20203;-76
2021/04/09 08:30:38;;;;;;;7.10;5.17;;;8.70;99.90;;;;;;5076678;28;20735;-76
2021/04/09 08:33:06;;;;;;;6.93;4.77;;;8.80;99.90;;;;;;5075431;28;20203;-75
2021/04/09 08:35:33;;;;;;;10.87;5.57;;;9.10;99.90;;;;;;5076817;28;20742;-75
2021/04/09 08:38:02;;;;;;;9.10;5.13;;;8.90;99.90;;;;;;5076041;28;20234;-77
2021/04/09 08:40:29;;;;;;;9.57;4.73;;;8.80;99.90;;;;;;5059659;28;20297;-77
2021/04/09 08:42:56;;;;;;;6.17;4.60;;;9.00;99.90;;;;;;5080958;28;20215;-75
2021/04/09 08:45:27;;;;;;;5.80;4.60;;;9.50;99.90;;;;;;5079425;28;20195;-78
2021/04/09 08:47:56;;;;;;;6.73;4.60;;;9.60;99.90;;;;;;5078427;28;20232;-77
2021/04/09 08:50:23;;;;;;;8.07;4.60;;;9.90;99.20;;;;;;5080624;28;20254;-75
2021/04/09 08:52:50;;;;;;;5.57;4.53;;;10.00;99.90;;;;;;5062842;28;20343;-77
2021/04/09 08:55:18;;;;;;;6.17;4.73;;;10.10;99.30;;;;;;5079449;28;20203;-77
2021/04/09 08:57:46;;;;;;;5.87;4.20;;;10.30;98.10;;;;;;5076758;28;20204;-77
2021/04/09 09:00:18;;;;;;;11.97;5.00;;;10.20;97.70;;;;;;5066651;28;20202;-75
2021/04/09 09:02:49;;;;;;;9.97;4.93;;;10.00;99.90;;;;;;5080866;28;20240;-75
2021/04/09 09:05:20;;;;;;;9.20;4.13;;;10.20;99.90;;;;;;5077374;28;20208;-75
2021/04/09 09:07:46;;;;;;;5.63;3.80;;;10.30;99.00;;;;;;5078607;28;20265;-76
2021/04/09 09:10:22;;;;;;;7.40;4.07;;;10.20;98.40;;;;;;5077146;28;20276;-76
2021/04/09 09:13:12;;;;;;;8.57;4.63;;;10.10;97.70;;;;;;5079656;28;20196;-74
2021/04/09 09:15:41;;;;;;;5.87;3.80;;;10.20;98.40;;;;;;5078657;28;20393;-74
2021/04/09 09:18:20;;;;;;;5.17;3.93;;;10.20;99.30;;;;;;5076311;28;20198;-75
2021/04/09 09:21:11;;;;;;;5.57;4.30;;;10.40;99.90;;;;;;5078730;28;20260;-75
2021/04/09 09:23:56;;;;;;;6.77;4.23;;;10.60;98.40;;;;;;5082277;28;20259;-76
2021/04/09 09:26:42;;;;;;;9.77;3.57;;;10.60;98.00;;;;;;5078424;28;20207;-77
2021/04/09 09:29:17;;;;;;;9.10;4.23;;;10.60;96.00;;;;;;5082836;28;21239;-75
2021/04/09 09:31:49;;;;;;;4.93;3.43;;;10.30;97.70;;;;;;5081022;28;20199;-75
2021/04/09 09:34:21;;;;;;;5.13;3.17;;;10.40;97.20;;;;;;5082298;28;20203;-75
2021/04/09 09:37:12;;;;;;;6.03;3.90;;;10.50;95.60;;;;;;5077137;28;20280;-78
2021/04/09 09:39:55;;;;;;;6.30;3.73;;;10.70;97.70;;;;;;5087761;28;20231;-76
2021/04/09 09:42:27;;;;;;;5.63;3.90;;;11.20;95.70;;;;;;5080105;28;20218;-76
2021/04/09 09:45:01;;;;;;;8.13;3.80;;;11.30;90.60;;;;;;5078185;28;20553;-75
2021/04/09 09:47:32;;;;;;;5.97;4.23;;;11.70;91.40;;;;;;5077278;28;20236;-75
2021/04/09 09:50:04;;;;;;;3.47;3.00;;;12.20;90.20;;;;;;5080806;28;20203;-76
2021/04/09 09:53:07;;;;;;;4.73;3.87;;;12.30;85.30;;;;;;5084544;28;20229;-75
2021/04/09 09:55:38;;;;;;;6.17;3.20;;;12.20;86.40;;;;;;5080228;28;20199;-76
2021/04/09 09:58:10;;;;;;;6.30;3.83;;;12.00;80.10;;;;;;5081178;28;20254;-76
2021/04/09 10:00:40;;;;;;;10.57;3.73;;;11.80;83.00;;;;;;5078151;28;20260;-75
2021/04/09 10:03:17;;;;;;;5.83;4.70;;;11.60;89.40;;;;;;5077549;28;20222;-76
2021/04/09 10:05:46;;;;;;;6.13;4.20;;;11.50;90.60;;;;;;5078646;28;20200;-75
2021/04/09 10:08:13;;;;;;;5.30;3.43;;;11.40;90.80;;;;;;5076395;28;20675;-76
2021/04/09 10:10:41;;;;;;;3.90;3.17;;;12.00;87.70;;;;;;5079294;28;20274;-76
2021/04/09 10:13:35;;;;;;;4.27;3.10;;;12.00;85.80;;;;;;5077420;28;20282;-76
2021/04/09 10:16:11;;;;;;;4.20;2.37;;;12.10;87.00;;;;;;5075374;28;20212;-76
2021/04/09 10:18:42;;;;;;;4.57;2.70;;;12.10;85.40;;;;;;5074030;28;20305;-77
2021/04/09 10:21:28;;;;;;;5.10;2.87;;;12.20;80.30;;;;;;5078239;28;20204;-75
2021/04/09 10:24:12;;;;;;;3.67;2.50;;;12.10;85.00;;;;;;5078827;28;20218;-76
2021/04/09 10:26:44;;;;;;;5.83;3.20;;;12.50;78.40;;;;;;5081237;28;20231;-75
2021/04/09 10:29:26;;;;;;;4.77;3.00;;;12.90;73.70;;;;;;5076746;28;20649;-76
2021/04/09 10:31:54;;;;;;;7.23;2.50;;;12.90;70.50;;;;;;5076338;28;20267;-75
2021/04/09 10:34:25;;;;;;;3.67;2.93;;;13.10;66.10;;;;;;5063184;28;20228;-74
2021/04/09 10:36:53;;;;;;;2.53;1.80;;;13.30;69.10;;;;;;5081577;28;20708;-75
2021/04/09 10:39:21;;;;;;;3.27;2.70;;;13.20;68.10;;;;;;5075837;28;20236;-75
2021/04/09 10:41:50;;;;;;;7.23;3.00;;;12.80;70.20;;;;;;5080404;28;20202;-76
2021/04/09 10:44:30;;;;;;;4.47;2.67;;;12.80;79.40;;;;;;5078579;28;20226;-76
2021/04/09 10:46:59;;;;;;;3.80;2.53;;;12.80;69.20;;;;;;5079212;28;20250;-75
2021/04/09 10:49:29;;;;;;;3.17;2.40;;;12.80;69.20;;;;;;5077735;28;20198;-75
2021/04/09 10:52:08;;;;;;;5.03;2.20;;;13.20;65.10;;;;;;5075973;28;20718;-74
2021/04/09 10:54:37;;;;;;;4.17;2.70;;;13.50;69.50;;;;;;5074526;28;20200;-76
2021/04/09 10:57:09;;;;;;;4.13;2.70;;;13.20;67.70;;;;;;5078959;28;20231;-76
2021/04/09 10:59:44;;;;;;;2.60;2.20;;;13.20;66.50;;;;;;5075316;28;20206;-76
2021/04/09 11:02:17;;;;;;;3.07;2.33;;;13.00;68.30;;;;;;5069993;28;20291;-76
2021/04/09 11:04:57;;;;;;;3.83;2.70;;;12.80;66.90;;;;;;5076817;28;20196;-76
2021/04/09 11:07:40;;;;;;;2.63;2.10;;;12.80;70.10;;;;;;5077232;28;20201;-75
2021/04/09 11:10:34;;;;;;;2.00;1.70;;;12.90;68.30;;;;;;5073651;28;20214;-77
2021/04/09 11:13:01;;;;;;;2.63;1.87;;;12.70;67.50;;;;;;5073689;28;20205;-76
2021/04/09 11:15:41;;;;;;;2.90;1.90;;;12.70;65.80;;;;;;5078460;28;20218;-79
2021/04/09 11:18:08;;;;;;;2.60;2.00;;;12.70;70.20;;;;;;5073707;28;20493;-75
2021/04/09 11:20:42;;;;;;;3.60;2.07;;;12.80;68.40;;;;;;5066110;28;20553;-75
2021/04/09 11:23:11;;;;;;;3.60;2.00;;;12.60;72.90;;;;;;5073006;28;20687;-76
2021/04/09 11:25:40;;;;;;;4.83;2.07;;;12.70;71.90;;;;;;5074915;28;20214;-75
2021/04/09 11:28:09;;;;;;;4.73;1.60;;;13.00;70.10;;;;;;5091848;27;20234;-75
2021/04/09 11:30:37;;;;;;;6.70;1.50;;;13.30;67.00;;;;;;5078984;28;20230;-75
2021/04/09 11:33:06;;;;;;;3.00;1.70;;;13.20;63.30;;;;;;5075338;28;20592;-74
2021/04/09 11:35:38;;;;;;;1.97;1.43;;;13.10;60.70;;;;;;5060017;28;20252;-74
2021/04/09 11:38:14;;;;;;;1.40;1.30;;;12.90;65.90;;;;;;5074888;28;20208;-74
2021/04/09 11:40:45;;;;;;;4.43;1.60;;;12.60;65.80;;;;;;5063882;28;20232;-75
2021/04/09 11:43:13;;;;;;;1.87;1.33;;;12.80;65.30;;;;;;5040446;28;20216;-75
2021/04/09 11:45:49;;;;;;;1.80;1.20;;;12.60;66.10;;;;;;5074080;28;20207;-75
2021/04/09 11:48:35;;;;;;;1.90;1.30;;;12.40;67.70;;;;;;5071782;28;20211;-77
2021/04/09 11:51:22;;;;;;;1.47;1.10;;;13.00;67.00;;;;;;5080710;28;20209;-75
2021/04/09 11:54:01;;;;;;;3.13;1.17;;;13.40;60.40;;;;;;5074779;28;20285;-82
2021/04/09 11:56:46;;;;;;;2.43;1.23;;;13.10;57.80;;;;;;5070761;28;20292;-81
2021/04/09 11:59:20;;;;;;;1.83;1.57;;;13.00;56.70;;;;;;5075622;28;21508;-76
2021/04/09 12:01:49;;;;;;;1.80;1.10;;;13.20;58.20;;;;;;5074588;28;20500;-77
2021/04/09 12:04:39;;;;;;;1.27;1.10;;;13.40;56.90;;;;;;5076232;28;20226;-74
2021/04/09 12:07:21;;;;;;;1.67;1.17;;;14.10;52.40;;;;;;5075255;28;20233;-74
2021/04/09 12:10:08;;;;;;;2.23;1.00;;;14.40;51.80;;;;;;5077920;28;20206;-74
2021/04/09 12:12:35;;;;;;;1.27;1.00;;;14.70;51.00;;;;;;5061299;28;20191;-75
2021/04/09 12:15:02;;;;;;;1.00;0.90;;;15.00;50.30;;;;;;5075990;28;20285;-75
2021/04/09 12:17:28;;;;;;;1.37;1.10;;;14.90;46.00;;;;;;5078138;28;20564;-76
2021/04/09 12:19:56;;;;;;;2.70;1.47;;;13.90;45.50;;;;;;5081061;28;20199;-77
2021/04/09 12:22:24;;;;;;;1.83;1.20;;;14.60;47.80;;;;;;5070606;28;20337;-76
2021/04/09 12:24:50;;;;;;;1.73;1.20;;;14.10;47.50;;;;;;5072727;28;20214;-76
2021/04/09 12:27:17;;;;;;;4.40;1.40;;;14.10;48.20;;;;;;5072332;28;22511;-76
2021/04/09 12:29:44;;;;;;;1.90;1.20;;;13.90;49.00;;;;;;5077382;28;20243;-74
2021/04/09 12:32:11;;;;;;;3.57;1.13;;;14.20;50.50;;;;;;5073069;28;20763;-77
2021/04/09 12:34:37;;;;;;;1.53;0.80;;;14.10;47.00;;;;;;5056697;28;20219;-75
2021/04/09 12:37:07;;;;;;;1.33;1.00;;;13.70;46.70;;;;;;5060681;28;20630;-74
2021/04/09 12:39:33;;;;;;;1.87;0.90;;;13.70;47.00;;;;;;5074168;28;20238;-77
2021/04/09 12:42:01;;;;;;;1.00;0.90;;;13.20;50.90;;;;;;5075094;28;20912;-75
2021/04/09 12:44:28;;;;;;;5.03;1.23;;;13.30;50.00;;;;;;5047131;28;20229;-75
2021/04/09 12:46:54;;;;;;;1.07;0.80;;;13.20;48.10;;;;;;5072494;28;20848;-77
2021/04/09 12:49:22;;;;;;;1.07;0.97;;;12.80;52.80;;;;;;5074024;28;20201;-75
2021/04/09 12:51:49;;;;;;;1.77;1.00;;;12.70;53.60;;;;;;5075555;28;20202;-75
2021/04/09 12:54:18;;;;;;;1.83;1.07;;;13.00;53.70;;;;;;5074704;28;20244;-77
2021/04/09 12:56:44;;;;;;;6.43;1.30;;;13.00;54.40;;;;;;5076485;28;20255;-75
2021/04/09 12:59:15;;;;;;;1.07;0.87;;;12.80;54.30;;;;;;5074960;28;20266;-75
2021/04/09 13:01:42;;;;;;;4.33;1.00;;;13.00;54.10;;;;;;5071378;28;20206;-75
2021/04/09 13:04:09;;;;;;;1.43;0.90;;;13.10;55.50;;;;;;5072655;28;20222;-75
2021/04/09 13:06:35;;;;;;;1.33;0.90;;;13.20;51.80;;;;;;5074234;28;20663;-74